Pagrindinis puslapis
METAR-TAF:

METAR-TAF

Oro uostai :

A.L. Mangham Jr. Regional Airport

Nacogdoches, Teksasas, Jungtinės Amerikos Valstijos

platuma: 31-35N, ilguma: 094-43W, Aukštis: 108 m

Dabartinis oras

Ataskaita buvo paskelbta 42 minutes, ne 03:23 UTC
Vėjas 6 kt iš Pietų/Pietryčių
Temperatūra 21°C
Drėgmė 100%
Slėgis 1015 hPa
Matomumas: 16.1 km
Su prošvaistėmis ne aukštis 700 ft

METAR: KOCH 170323Z AUTO 15006KT 10SM BKN007 21/21 A2998 RMK AO2 CIG 005V010

Laikas: 23:05 (04:05 UTC)


TAF: trūkstamas

Orai ataskaitas ir orų prognozės (METAR, TAF).

turimą stotys yra geltonos ir raudonos taškus žemėlapyje.

Perkelti pele per norėdami pamatyti stoties vardą.

Tada spustelėkite, norėdami matyti oro stebėjimo ir prognozės.

Norėdami pakeisti žemėlapį: spustelėkite ant žalios mygtukų su juodo kryžiaus žemyn,; žalią mygtuką su brūkšneliu, jei norite nutolinti; arba žalių rodyklių gretimoms žemėlapius.


METAR-TAF: